createdAt,value
2018-12-31T08:06:33.152Z,9.20
2018-12-31T08:08:38.782Z,9.10
2018-12-31T08:10:43.947Z,9.10
2018-12-31T08:12:49.168Z,9.10
2018-12-31T08:14:54.249Z,9.10
2018-12-31T08:16:59.800Z,9.10
2018-12-31T08:19:35.684Z,9.10
2018-12-31T08:21:59.204Z,9.10
2018-12-31T08:24:04.509Z,9.10
2018-12-31T08:26:09.742Z,9.10
2018-12-31T08:28:14.889Z,9.10
2018-12-31T08:30:20.117Z,9.20
2018-12-31T08:32:25.392Z,9.20
2018-12-31T08:34:31.102Z,9.20
2018-12-31T08:36:36.699Z,9.20
2018-12-31T08:38:42.122Z,9.20
2018-12-31T08:40:47.322Z,9.20
2018-12-31T08:42:52.332Z,9.20
2018-12-31T08:44:57.462Z,9.20
2018-12-31T08:47:02.632Z,9.20
2018-12-31T08:49:08.155Z,9.20
2018-12-31T08:51:13.244Z,9.20
2018-12-31T08:53:18.339Z,9.20
2018-12-31T08:55:23.454Z,9.20
2018-12-31T08:57:28.702Z,9.20
2018-12-31T08:59:33.776Z,9.20
2018-12-31T09:01:39.109Z,9.20
2018-12-31T09:03:44.437Z,9.20
2018-12-31T09:05:50.018Z,9.20
2018-12-31T09:07:55.133Z,9.30
2018-12-31T09:10:00.708Z,9.30
2018-12-31T09:12:06.140Z,9.30
2018-12-31T09:14:11.313Z,9.30
2018-12-31T09:16:16.615Z,9.30
2018-12-31T09:18:22.042Z,9.30
2018-12-31T09:20:28.433Z,9.30
2018-12-31T09:22:34.049Z,9.30
2018-12-31T09:24:44.624Z,9.30
2018-12-31T09:26:46.113Z,9.30
2018-12-31T09:28:51.529Z,9.30
2018-12-31T09:30:56.676Z,9.30
2018-12-31T09:33:05.231Z,9.40
2018-12-31T09:35:10.452Z,9.30
2018-12-31T09:37:15.503Z,9.40
2018-12-31T09:39:20.631Z,9.40
2018-12-31T09:41:25.615Z,9.40
2018-12-31T09:43:30.764Z,9.40
2018-12-31T09:45:36.156Z,9.40
2018-12-31T09:47:41.314Z,9.40
2018-12-31T09:49:46.391Z,9.40
2018-12-31T09:51:51.537Z,9.40
2018-12-31T09:53:56.676Z,9.50
2018-12-31T09:56:02.242Z,9.40
2018-12-31T09:58:08.017Z,9.40
2018-12-31T10:00:13.076Z,9.40
2018-12-31T10:02:18.677Z,9.40
2018-12-31T10:04:23.970Z,9.40
2018-12-31T10:06:29.755Z,9.50
2018-12-31T10:08:35.235Z,9.40
2018-12-31T10:10:40.390Z,9.50
2018-12-31T10:12:45.482Z,9.50
2018-12-31T10:14:50.566Z,9.50
2018-12-31T10:16:55.805Z,9.50
2018-12-31T10:19:01.040Z,9.60
2018-12-31T10:21:06.062Z,9.60
2018-12-31T10:23:11.533Z,9.60
2018-12-31T10:25:16.843Z,9.60
2018-12-31T10:27:22.201Z,9.70
2018-12-31T10:29:27.344Z,9.70
2018-12-31T10:31:32.841Z,9.70
2018-12-31T10:33:38.191Z,9.70
2018-12-31T10:35:43.401Z,9.70
2018-12-31T10:37:48.433Z,9.70
2018-12-31T10:39:54.167Z,9.70
2018-12-31T10:41:59.194Z,9.70
2018-12-31T10:44:04.465Z,9.60
2018-12-31T10:46:10.200Z,9.70
2018-12-31T10:48:15.252Z,9.60
2018-12-31T10:50:20.408Z,9.60
2018-12-31T10:52:25.942Z,9.50
2018-12-31T10:54:31.029Z,9.50
2018-12-31T10:56:36.229Z,9.50
2018-12-31T10:58:41.720Z,9.50
2018-12-31T11:00:46.895Z,9.60
2018-12-31T11:02:52.237Z,9.60
2018-12-31T11:04:57.597Z,9.60
2018-12-31T11:07:03.318Z,9.60
2018-12-31T11:09:08.572Z,9.60
2018-12-31T11:11:13.704Z,9.60
2018-12-31T11:13:18.761Z,9.60
2018-12-31T11:15:23.871Z,9.70
2018-12-31T11:17:28.976Z,9.70
2018-12-31T11:19:34.519Z,9.70
2018-12-31T11:21:39.995Z,9.80
2018-12-31T11:23:45.255Z,9.80
2018-12-31T11:25:50.174Z,9.80
2018-12-31T11:27:55.173Z,9.80
2018-12-31T11:30:00.429Z,9.80
2018-12-31T11:32:05.629Z,9.80
2018-12-31T11:34:10.555Z,9.90
2018-12-31T11:36:15.727Z,9.90
2018-12-31T11:38:21.024Z,9.90
2018-12-31T11:40:26.183Z,9.90
2018-12-31T11:42:31.198Z,10.00
2018-12-31T11:44:36.472Z,10.00
2018-12-31T11:46:41.685Z,10.00
2018-12-31T11:48:47.074Z,10.00
2018-12-31T11:50:52.456Z,10.00
2018-12-31T11:52:57.863Z,10.00
2018-12-31T11:55:03.577Z,10.00
2018-12-31T11:57:09.165Z,10.00
2018-12-31T11:59:14.372Z,10.00
2018-12-31T12:01:19.577Z,10.00
2018-12-31T12:03:25.591Z,10.10
2018-12-31T12:05:31.015Z,10.00
2018-12-31T12:07:37.062Z,10.10
2018-12-31T12:09:42.824Z,10.10
2018-12-31T12:11:49.662Z,10.10
2018-12-31T12:13:56.446Z,10.10
2018-12-31T12:16:02.367Z,10.10
2018-12-31T12:18:07.593Z,10.10
2018-12-31T12:20:12.955Z,10.10
2018-12-31T12:22:18.178Z,10.10
2018-12-31T12:24:23.746Z,10.10
2018-12-31T12:26:28.982Z,10.10
2018-12-31T12:28:34.112Z,10.00
2018-12-31T12:30:39.703Z,10.10
2018-12-31T12:32:44.842Z,10.10
2018-12-31T12:35:00.243Z,10.10
2018-12-31T12:37:06.637Z,10.10
2018-12-31T12:39:12.343Z,10.10
2018-12-31T12:41:18.207Z,10.10
2018-12-31T12:43:24.009Z,10.20
2018-12-31T12:45:29.376Z,10.20
2018-12-31T12:47:34.837Z,10.10
2018-12-31T12:49:42.326Z,10.10
2018-12-31T12:51:47.703Z,10.10
2018-12-31T12:53:53.094Z,10.10
2018-12-31T12:55:58.771Z,10.10
2018-12-31T12:58:04.290Z,10.10
2018-12-31T13:00:09.579Z,10.20
2018-12-31T13:02:14.949Z,10.20
2018-12-31T13:04:20.124Z,10.20
2018-12-31T13:06:25.366Z,10.20
2018-12-31T13:08:30.480Z,10.20
2018-12-31T13:10:36.794Z,10.20
2018-12-31T13:12:41.961Z,10.20
2018-12-31T13:14:47.193Z,10.20
2018-12-31T13:16:52.351Z,10.20
2018-12-31T13:18:58.114Z,10.20
2018-12-31T13:21:03.378Z,10.20
2018-12-31T13:23:08.963Z,10.30
2018-12-31T13:25:19.263Z,10.20
2018-12-31T13:27:24.573Z,10.20
2018-12-31T13:29:30.087Z,10.20
2018-12-31T13:31:35.704Z,10.20
2018-12-31T13:33:43.049Z,10.20
2018-12-31T13:35:49.089Z,10.20
2018-12-31T13:37:55.214Z,10.20
2018-12-31T13:40:02.487Z,10.20
2018-12-31T13:42:07.934Z,10.20
2018-12-31T13:44:14.599Z,10.20
2018-12-31T13:46:20.255Z,10.30
2018-12-31T13:48:26.122Z,10.30
2018-12-31T13:50:31.823Z,10.20
2018-12-31T13:52:37.328Z,10.20
2018-12-31T13:54:49.367Z,10.20
2018-12-31T13:56:54.842Z,10.30
2018-12-31T13:58:59.960Z,10.30
2018-12-31T14:01:05.341Z,10.30
2018-12-31T14:03:17.193Z,10.30
2018-12-31T14:05:17.403Z,10.30
2018-12-31T14:07:22.779Z,10.30
2018-12-31T14:09:28.002Z,10.30
2018-12-31T14:11:35.610Z,10.20
2018-12-31T14:13:40.916Z,10.20
2018-12-31T14:15:46.092Z,10.20
2018-12-31T14:17:51.295Z,10.20
2018-12-31T14:19:56.434Z,10.20
2018-12-31T14:22:03.378Z,10.20
2018-12-31T14:24:08.551Z,10.10
2018-12-31T14:26:14.677Z,10.10
2018-12-31T14:28:19.703Z,10.10
2018-12-31T14:30:25.383Z,10.10
2018-12-31T14:32:30.484Z,10.10
2018-12-31T14:34:35.657Z,10.10
2018-12-31T14:36:40.924Z,10.00
2018-12-31T14:38:46.375Z,10.00
2018-12-31T14:40:51.668Z,10.00
2018-12-31T14:42:56.940Z,10.00
2018-12-31T14:45:03.184Z,10.00
2018-12-31T14:47:08.412Z,10.00
2018-12-31T14:49:14.874Z,9.90
2018-12-31T14:51:20.025Z,9.90
2018-12-31T14:53:24.847Z,9.90
2018-12-31T14:55:30.909Z,9.90
2018-12-31T14:57:36.267Z,9.90
2018-12-31T14:59:41.914Z,9.80
2018-12-31T15:01:47.566Z,9.80
2018-12-31T15:03:52.767Z,9.80
2018-12-31T15:05:57.844Z,9.80
2018-12-31T15:08:03.357Z,9.80
2018-12-31T15:10:09.020Z,9.70
2018-12-31T15:12:14.626Z,9.70
2018-12-31T15:14:20.224Z,9.70
2018-12-31T15:16:25.303Z,9.70
2018-12-31T15:18:30.994Z,9.70
2018-12-31T15:20:36.089Z,9.70
2018-12-31T15:22:41.812Z,9.70
2018-12-31T15:24:47.067Z,9.70
2018-12-31T15:26:52.209Z,9.60
2018-12-31T15:28:57.948Z,9.60
2018-12-31T15:31:03.075Z,9.60
2018-12-31T15:33:08.250Z,9.60
2018-12-31T15:35:13.617Z,9.60
2018-12-31T15:37:18.999Z,9.60
2018-12-31T15:39:24.579Z,9.50
2018-12-31T15:41:30.332Z,9.50
2018-12-31T15:43:35.302Z,9.50
2018-12-31T15:45:40.493Z,9.50
2018-12-31T15:47:46.067Z,9.50
2018-12-31T15:49:51.383Z,9.50
2018-12-31T15:51:57.310Z,9.50
2018-12-31T15:54:02.511Z,9.50
2018-12-31T15:56:07.620Z,9.50
2018-12-31T15:58:12.974Z,9.50
2018-12-31T16:00:18.105Z,9.50
2018-12-31T16:02:23.676Z,9.50
2018-12-31T16:04:28.917Z,9.40
2018-12-31T16:06:34.051Z,9.40
2018-12-31T16:08:39.196Z,9.40
2018-12-31T16:10:44.472Z,9.40
2018-12-31T16:12:49.666Z,9.40
2018-12-31T16:14:54.829Z,9.40
2018-12-31T16:16:59.915Z,9.40
2018-12-31T16:19:05.834Z,9.40
2018-12-31T16:21:11.200Z,9.40
2018-12-31T16:23:16.924Z,9.40
2018-12-31T16:25:22.382Z,9.40
2018-12-31T16:27:27.803Z,9.40
2018-12-31T16:29:33.233Z,9.40
2018-12-31T16:31:39.032Z,9.40
2018-12-31T16:33:44.447Z,9.40
2018-12-31T16:35:50.057Z,9.40
2018-12-31T16:37:55.259Z,9.30
2018-12-31T16:40:01.526Z,9.30
2018-12-31T16:42:06.952Z,9.30
2018-12-31T16:44:12.664Z,9.30
2018-12-31T16:46:17.971Z,9.30
2018-12-31T16:48:23.383Z,9.30
2018-12-31T16:50:28.927Z,9.30
2018-12-31T16:52:34.049Z,9.30
2018-12-31T16:54:41.902Z,9.30
2018-12-31T16:56:52.979Z,9.30
2018-12-31T16:58:58.282Z,9.30
2018-12-31T17:01:03.853Z,9.20
2018-12-31T17:03:11.561Z,9.20
2018-12-31T17:05:17.672Z,9.20
2018-12-31T17:07:28.139Z,9.20
2018-12-31T17:09:37.882Z,9.20
2018-12-31T17:11:43.200Z,9.20
2018-12-31T17:13:48.872Z,9.20
2018-12-31T17:15:54.266Z,9.20
2018-12-31T17:17:59.474Z,9.20
2018-12-31T17:20:04.862Z,9.20
2018-12-31T17:22:10.229Z,9.20
2018-12-31T17:24:15.489Z,9.20
2018-12-31T17:26:20.797Z,9.20
2018-12-31T17:28:26.513Z,9.20
2018-12-31T17:30:31.683Z,9.20
2018-12-31T17:32:37.531Z,9.20
2018-12-31T17:34:42.643Z,9.10
2018-12-31T17:36:47.878Z,9.10
2018-12-31T17:38:53.068Z,9.10
2018-12-31T17:40:58.249Z,9.10
2018-12-31T17:43:03.863Z,9.10
2018-12-31T17:45:09.777Z,9.10
2018-12-31T17:47:14.878Z,9.10
2018-12-31T17:49:20.006Z,9.10
2018-12-31T17:51:25.055Z,9.10
2018-12-31T17:53:30.247Z,9.00
2018-12-31T17:55:35.578Z,9.00
2018-12-31T17:57:40.943Z,9.00
2018-12-31T17:59:46.647Z,9.00
2018-12-31T18:01:51.781Z,9.00
2018-12-31T18:03:58.373Z,9.00
2018-12-31T18:06:03.790Z,9.00
2018-12-31T18:08:09.077Z,9.00
2018-12-31T18:15:02.860Z,9.00
2018-12-31T18:17:14.304Z,9.00
2018-12-31T18:26:14.501Z,9.00
2018-12-31T18:29:01.561Z,8.90
2018-12-31T18:31:06.352Z,8.90
2018-12-31T18:33:11.052Z,8.90
2018-12-31T18:35:15.810Z,8.90
2018-12-31T18:37:21.062Z,8.90
2018-12-31T18:39:25.851Z,8.90
2018-12-31T18:41:30.642Z,8.90
2018-12-31T18:43:35.682Z,8.80
2018-12-31T18:45:40.519Z,8.80
2018-12-31T18:47:45.684Z,8.80
2018-12-31T18:49:50.421Z,8.80
2018-12-31T18:51:55.872Z,8.80
2018-12-31T18:54:00.983Z,8.70
2018-12-31T18:56:05.907Z,8.80
2018-12-31T18:58:10.659Z,8.70
2018-12-31T19:00:15.458Z,8.70
2018-12-31T19:02:20.218Z,8.70
2018-12-31T19:04:24.997Z,8.70
2018-12-31T19:06:30.140Z,8.70
2018-12-31T19:08:34.971Z,8.70
2018-12-31T19:10:39.806Z,8.70
2018-12-31T19:12:44.585Z,8.70
2018-12-31T19:14:49.500Z,8.70
2018-12-31T19:16:54.248Z,8.70
2018-12-31T19:18:59.031Z,8.70
2018-12-31T19:21:04.334Z,8.60
2018-12-31T19:23:09.074Z,8.60
2018-12-31T19:25:13.877Z,8.60
2018-12-31T19:27:19.099Z,8.60
2018-12-31T19:29:23.956Z,8.60
2018-12-31T19:31:29.390Z,8.60
2018-12-31T19:33:34.537Z,8.60
2018-12-31T19:35:39.657Z,8.60
2018-12-31T19:37:44.563Z,8.60
2018-12-31T19:39:49.829Z,8.60
2018-12-31T19:41:54.545Z,8.60
2018-12-31T19:43:59.325Z,8.60
2018-12-31T19:46:04.568Z,8.60
2018-12-31T19:48:09.364Z,8.60
2018-12-31T19:50:14.563Z,8.60
2018-12-31T19:52:19.408Z,8.60
2018-12-31T19:54:24.225Z,8.60
2018-12-31T19:56:29.004Z,8.60
2018-12-31T19:58:34.153Z,8.60
2018-12-31T20:00:38.913Z,8.60
2018-12-31T20:02:43.651Z,8.60
2018-12-31T20:04:48.476Z,8.60
2018-12-31T20:07:01.039Z,8.60
2018-12-31T20:09:00.756Z,8.60
2018-12-31T20:11:05.911Z,8.50
2018-12-31T20:13:10.652Z,8.50
2018-12-31T20:15:15.389Z,8.50
2018-12-31T20:17:20.081Z,8.60
2018-12-31T20:19:25.238Z,8.60
2018-12-31T20:21:29.972Z,8.60
2018-12-31T20:23:34.720Z,8.60
2018-12-31T20:25:39.634Z,8.60
2018-12-31T20:27:44.437Z,8.60
2018-12-31T20:29:49.311Z,8.60
2018-12-31T20:31:54.034Z,8.60
2018-12-31T20:33:58.784Z,8.60
2018-12-31T20:36:03.523Z,8.60
2018-12-31T20:38:08.378Z,8.60
2018-12-31T20:40:13.141Z,8.60
2018-12-31T20:42:17.998Z,8.60
2018-12-31T20:44:22.784Z,8.60
2018-12-31T20:46:27.585Z,8.60
2018-12-31T20:48:35.058Z,8.60
2018-12-31T20:50:39.784Z,8.50
2018-12-31T20:52:44.556Z,8.50
2018-12-31T20:54:49.342Z,8.50
2018-12-31T20:56:54.503Z,8.50
2018-12-31T20:58:59.636Z,8.50
2018-12-31T21:01:04.582Z,8.50
2018-12-31T21:03:09.322Z,8.50
2018-12-31T21:05:14.097Z,8.50
2018-12-31T21:07:18.879Z,8.50
2018-12-31T21:09:24.011Z,8.50
2018-12-31T21:11:28.726Z,8.50
2018-12-31T21:13:33.479Z,8.50
2018-12-31T21:15:38.240Z,8.50
2018-12-31T21:17:43.374Z,8.50
2018-12-31T21:19:48.519Z,8.50
2018-12-31T21:21:53.258Z,8.50
2018-12-31T21:23:57.982Z,8.50
2018-12-31T21:26:03.911Z,8.50
2018-12-31T21:28:08.698Z,8.50
2018-12-31T21:30:15.458Z,8.50
2018-12-31T21:32:20.210Z,8.50
2018-12-31T21:34:25.037Z,8.50
2018-12-31T21:36:29.811Z,8.50
2018-12-31T21:38:34.957Z,8.50
2018-12-31T21:40:42.950Z,8.50
2018-12-31T21:42:48.476Z,8.50
2018-12-31T21:44:53.211Z,8.50
2018-12-31T21:46:58.364Z,8.40
2018-12-31T21:49:03.163Z,8.50
2018-12-31T21:51:07.874Z,8.50
2018-12-31T21:53:13.547Z,8.40
2018-12-31T21:55:18.278Z,8.40
2018-12-31T21:57:23.523Z,8.40
2018-12-31T21:59:28.710Z,8.40
2018-12-31T22:01:33.443Z,8.40
2018-12-31T22:03:38.263Z,8.40
2018-12-31T22:05:42.987Z,8.40
2018-12-31T22:07:47.668Z,8.40
2018-12-31T22:09:52.470Z,8.40
2018-12-31T22:11:58.009Z,8.30
2018-12-31T22:14:03.274Z,8.30
2018-12-31T22:16:08.117Z,8.30
2018-12-31T22:18:13.157Z,8.40
2018-12-31T22:20:17.925Z,8.30
2018-12-31T22:22:22.675Z,8.30
2018-12-31T22:24:27.858Z,8.30
2018-12-31T22:26:32.984Z,8.30
2018-12-31T22:28:38.145Z,8.30
2018-12-31T22:30:42.958Z,8.30
2018-12-31T22:32:47.980Z,8.30
2018-12-31T22:34:52.752Z,8.30
2018-12-31T22:36:57.504Z,8.30
2018-12-31T22:39:02.246Z,8.30
2018-12-31T22:41:07.111Z,8.30
2018-12-31T22:43:11.834Z,8.30
2018-12-31T22:45:17.423Z,8.30
2018-12-31T22:47:22.179Z,8.30
2018-12-31T22:49:27.374Z,8.30
2018-12-31T22:51:32.505Z,8.30
2018-12-31T22:53:45.717Z,8.30
2018-12-31T22:55:50.580Z,8.20
2018-12-31T22:57:57.754Z,8.20
2018-12-31T23:00:02.560Z,8.20
2018-12-31T23:02:07.807Z,8.20
2018-12-31T23:04:12.900Z,8.20
2018-12-31T23:06:17.673Z,8.20
2018-12-31T23:08:22.797Z,8.20
2018-12-31T23:10:27.753Z,8.20
2018-12-31T23:12:32.905Z,8.20
2018-12-31T23:14:38.402Z,8.20
2018-12-31T23:16:47.077Z,8.20
2018-12-31T23:18:51.791Z,8.20
2018-12-31T23:20:56.960Z,8.20
2018-12-31T23:23:01.682Z,8.20
2018-12-31T23:25:07.859Z,8.20
2018-12-31T23:27:12.961Z,8.20
2018-12-31T23:29:17.663Z,8.20
2018-12-31T23:31:22.943Z,8.10
2018-12-31T23:33:28.045Z,8.10
2018-12-31T23:35:32.830Z,8.20
2018-12-31T23:37:39.200Z,8.10
2018-12-31T23:39:43.941Z,8.10
2018-12-31T23:41:49.770Z,8.10
2018-12-31T23:43:54.544Z,8.10
2018-12-31T23:45:59.699Z,8.10
2018-12-31T23:48:06.487Z,8.10
2018-12-31T23:50:12.014Z,8.10
2018-12-31T23:52:20.126Z,8.10
2018-12-31T23:54:25.271Z,8.10
2018-12-31T23:56:30.782Z,8.10
2018-12-31T23:58:35.507Z,8.10
